createdAt,value
2023-03-15T00:01:16.508Z,99.90
2023-03-15T00:03:45.497Z,99.90
2023-03-15T00:06:14.274Z,99.90
2023-03-15T00:08:47.296Z,99.90
2023-03-15T00:11:17.502Z,99.90
2023-03-15T00:13:46.233Z,99.90
2023-03-15T00:16:17.508Z,99.90
2023-03-15T00:18:47.056Z,99.90
2023-03-15T00:21:15.758Z,99.90
2023-03-15T00:23:43.846Z,99.90
2023-03-15T00:26:11.978Z,99.90
2023-03-15T00:28:41.399Z,99.90
2023-03-15T00:31:16.787Z,99.90
2023-03-15T00:33:47.216Z,99.90
2023-03-15T00:36:16.410Z,99.90
2023-03-15T00:38:45.051Z,99.90
2023-03-15T00:41:15.342Z,99.90
2023-03-15T00:43:45.596Z,99.90
2023-03-15T00:46:14.270Z,99.90
2023-03-15T00:48:43.331Z,99.90
2023-03-15T00:51:13.454Z,99.90
2023-03-15T00:53:44.215Z,99.90
2023-03-15T00:56:14.009Z,99.90
2023-03-15T00:58:42.342Z,99.90
2023-03-15T01:01:13.485Z,99.90
2023-03-15T01:03:42.409Z,99.90
2023-03-15T01:06:12.947Z,99.90
2023-03-15T01:08:42.103Z,99.90
2023-03-15T01:11:12.539Z,99.90
2023-03-15T01:13:41.409Z,99.90
2023-03-15T01:16:12.628Z,99.90
2023-03-15T01:18:41.439Z,99.90
2023-03-15T01:21:10.784Z,99.90
2023-03-15T01:23:38.852Z,99.90
2023-03-15T01:26:09.398Z,99.90
2023-03-15T01:28:37.446Z,99.90
2023-03-15T01:31:05.843Z,99.90
2023-03-15T01:33:36.246Z,99.90
2023-03-15T01:36:07.375Z,99.90
2023-03-15T01:38:36.743Z,99.90
2023-03-15T01:41:05.249Z,99.90
2023-03-15T01:43:34.033Z,99.90
2023-03-15T01:46:34.684Z,99.90
2023-03-15T01:49:23.084Z,99.90
2023-03-15T01:51:56.573Z,99.90
2023-03-15T01:54:28.689Z,99.90
2023-03-15T01:57:01.120Z,99.90
2023-03-15T01:59:32.236Z,99.90
2023-03-15T02:02:01.822Z,99.90
2023-03-15T02:04:35.348Z,99.90
2023-03-15T02:07:04.653Z,99.90
2023-03-15T02:09:43.552Z,99.90
2023-03-15T02:12:12.336Z,99.90
2023-03-15T02:14:41.905Z,99.90
2023-03-15T02:17:13.663Z,99.90
2023-03-15T02:19:55.060Z,99.90
2023-03-15T02:22:36.782Z,99.90
2023-03-15T02:25:13.364Z,99.90
2023-03-15T02:27:44.653Z,99.90
2023-03-15T02:30:13.354Z,99.90
2023-03-15T02:32:43.326Z,99.90
2023-03-15T02:35:11.394Z,99.90
2023-03-15T02:37:39.522Z,99.90
2023-03-15T02:40:19.283Z,99.90
2023-03-15T02:42:52.899Z,99.90
2023-03-15T02:45:21.563Z,99.90
2023-03-15T02:47:51.759Z,99.90
2023-03-15T02:50:20.001Z,99.90
2023-03-15T02:52:47.954Z,99.90
2023-03-15T02:55:16.839Z,99.90
2023-03-15T02:57:44.824Z,99.90
2023-03-15T03:00:15.095Z,99.90
2023-03-15T03:02:46.459Z,99.90
2023-03-15T03:05:16.351Z,99.90
2023-03-15T03:07:44.799Z,99.90
2023-03-15T03:10:16.734Z,99.90
2023-03-15T03:12:53.451Z,99.90
2023-03-15T03:15:28.474Z,99.90
2023-03-15T03:17:56.828Z,99.90
2023-03-15T03:20:25.378Z,99.90
2023-03-15T03:22:55.861Z,99.90
2023-03-15T03:25:27.755Z,99.90
2023-03-15T03:27:57.184Z,99.90
2023-03-15T03:30:28.444Z,99.90
2023-03-15T03:32:56.411Z,99.90
2023-03-15T03:35:24.434Z,99.90
2023-03-15T03:37:53.814Z,99.90
2023-03-15T03:40:27.691Z,99.90
2023-03-15T03:42:55.705Z,99.90
2023-03-15T03:45:24.699Z,99.90
2023-03-15T03:47:57.907Z,99.90
2023-03-15T03:50:26.240Z,99.90
2023-03-15T03:52:54.329Z,99.90
2023-03-15T03:55:26.912Z,99.90
2023-03-15T03:57:55.424Z,99.90
2023-03-15T04:01:03.963Z,99.90
2023-03-15T04:03:36.032Z,99.90
2023-03-15T04:06:11.242Z,99.90
2023-03-15T04:08:43.067Z,99.90
2023-03-15T04:11:18.517Z,99.90
2023-03-15T04:13:52.712Z,99.90
2023-03-15T04:16:22.183Z,99.90
2023-03-15T04:19:03.189Z,99.90
2023-03-15T04:21:35.173Z,99.90
2023-03-15T04:24:16.518Z,99.90
2023-03-15T04:27:00.336Z,99.90
2023-03-15T04:29:46.911Z,99.90
2023-03-15T04:32:21.768Z,99.90
2023-03-15T04:34:58.436Z,99.90
2023-03-15T04:37:52.797Z,99.90
2023-03-15T04:40:39.718Z,99.90
2023-03-15T04:43:33.554Z,99.90
2023-03-15T04:46:27.928Z,99.90
2023-03-15T04:49:10.413Z,99.90
2023-03-15T04:52:18.313Z,99.90
2023-03-15T04:55:15.355Z,99.90
2023-03-15T04:58:06.986Z,99.90
2023-03-15T05:00:35.044Z,99.90
2023-03-15T05:03:26.688Z,99.90
2023-03-15T05:06:12.306Z,99.90
2023-03-15T05:08:45.387Z,99.90
2023-03-15T05:11:32.063Z,99.90
2023-03-15T05:14:32.232Z,99.90
2023-03-15T05:17:18.530Z,99.90
2023-03-15T05:19:55.252Z,99.90
2023-03-15T05:22:42.127Z,99.90
2023-03-15T05:25:24.376Z,99.90
2023-03-15T05:28:19.070Z,99.90
2023-03-15T05:31:00.571Z,99.90
2023-03-15T05:33:47.038Z,99.90
2023-03-15T05:36:36.098Z,99.90
2023-03-15T05:39:34.616Z,99.90
2023-03-15T05:42:26.054Z,99.90
2023-03-15T05:45:03.245Z,99.90
2023-03-15T05:47:51.701Z,99.90
2023-03-15T05:50:34.656Z,99.90
2023-03-15T05:53:21.160Z,99.90
2023-03-15T05:56:10.835Z,99.90
2023-03-15T05:58:58.548Z,99.90
2023-03-15T06:01:55.502Z,99.90
2023-03-15T06:04:30.714Z,99.90
2023-03-15T06:07:00.105Z,99.90
2023-03-15T06:09:28.736Z,99.90
2023-03-15T06:11:58.972Z,99.90
2023-03-15T06:14:28.703Z,99.90
2023-03-15T06:17:00.159Z,99.90
2023-03-15T06:19:30.449Z,99.90
2023-03-15T06:21:58.576Z,99.90
2023-03-15T06:24:32.482Z,99.90
2023-03-15T06:27:01.435Z,99.90
2023-03-15T06:29:31.107Z,99.90
2023-03-15T06:32:00.272Z,99.90
2023-03-15T06:34:29.249Z,99.90
2023-03-15T06:36:57.271Z,99.90
2023-03-15T06:39:25.292Z,99.90
2023-03-15T06:41:57.256Z,99.90
2023-03-15T06:44:26.701Z,99.90
2023-03-15T06:47:00.021Z,99.90
2023-03-15T06:49:28.471Z,99.90
2023-03-15T06:51:56.454Z,99.90
2023-03-15T06:54:24.515Z,99.90
2023-03-15T06:56:52.569Z,99.90
2023-03-15T06:59:20.567Z,99.90
2023-03-15T07:01:48.589Z,99.90
2023-03-15T07:04:17.907Z,99.90
2023-03-15T07:06:45.842Z,99.90
2023-03-15T07:09:13.810Z,99.90
2023-03-15T07:11:41.771Z,99.90
2023-03-15T07:14:09.791Z,99.90
2023-03-15T07:16:37.826Z,99.90
2023-03-15T07:19:05.878Z,99.90
2023-03-15T07:21:35.234Z,99.90
2023-03-15T07:24:03.184Z,99.90
2023-03-15T07:26:31.277Z,99.90
2023-03-15T07:28:59.284Z,99.90
2023-03-15T07:31:27.751Z,99.90
2023-03-15T07:33:55.726Z,99.90
2023-03-15T07:36:23.926Z,99.90
2023-03-15T07:38:53.202Z,99.90
2023-03-15T07:41:21.735Z,99.90
2023-03-15T07:44:03.461Z,99.90
2023-03-15T07:46:31.502Z,99.90
2023-03-15T07:48:59.511Z,99.90
2023-03-15T07:51:27.472Z,99.90
2023-03-15T07:53:56.829Z,99.90
2023-03-15T07:56:24.803Z,99.90
2023-03-15T07:58:52.787Z,99.90
2023-03-15T08:01:21.577Z,99.90
2023-03-15T08:03:49.534Z,99.90
2023-03-15T08:06:17.599Z,99.90
2023-03-15T08:08:45.672Z,99.90
2023-03-15T08:11:15.077Z,99.90
2023-03-15T08:13:43.112Z,99.90
2023-03-15T08:16:11.132Z,99.90
2023-03-15T08:18:39.113Z,99.90
2023-03-15T08:21:07.167Z,99.90
2023-03-15T08:23:35.166Z,99.90
2023-03-15T08:26:03.136Z,99.90
2023-03-15T08:28:32.456Z,99.90
2023-03-15T08:31:00.468Z,99.90
2023-03-15T08:33:30.131Z,99.90
2023-03-15T08:35:58.178Z,99.90
2023-03-15T08:38:26.414Z,99.90
2023-03-15T08:40:57.354Z,99.90
2023-03-15T08:43:25.387Z,99.90
2023-03-15T08:46:01.024Z,99.90
2023-03-15T08:48:29.579Z,99.90
2023-03-15T08:50:58.628Z,99.90
2023-03-15T08:53:26.587Z,99.90
2023-03-15T08:55:54.549Z,99.90
2023-03-15T08:58:22.551Z,99.90
2023-03-15T09:00:51.448Z,99.90
2023-03-15T09:03:22.492Z,99.90
2023-03-15T09:05:50.714Z,99.90
2023-03-15T09:08:21.114Z,99.90
2023-03-15T09:10:49.151Z,99.90
2023-03-15T09:13:17.103Z,99.90
2023-03-15T09:15:45.078Z,99.90
2023-03-15T09:18:13.520Z,99.90
2023-03-15T09:20:42.815Z,99.90
2023-03-15T09:23:11.054Z,99.90
2023-03-15T09:25:39.078Z,99.90
2023-03-15T09:28:08.693Z,99.90
2023-03-15T09:30:38.072Z,99.90
2023-03-15T09:33:07.466Z,99.90
2023-03-15T09:35:35.747Z,99.90
2023-03-15T09:38:05.077Z,99.90
2023-03-15T09:40:35.368Z,99.90
2023-03-15T09:43:14.186Z,99.90
2023-03-15T09:45:52.348Z,99.90
2023-03-15T09:48:25.246Z,99.90
2023-03-15T09:50:58.069Z,99.90
2023-03-15T09:53:33.170Z,99.90
2023-03-15T09:56:01.175Z,99.90
2023-03-15T09:58:34.652Z,98.70
2023-03-15T10:01:06.241Z,99.90
2023-03-15T10:03:43.549Z,99.90
2023-03-15T10:06:17.517Z,99.90
2023-03-15T10:08:47.688Z,99.90
2023-03-15T10:11:21.774Z,99.90
2023-03-15T10:14:08.138Z,99.90
2023-03-15T10:16:41.647Z,99.40
2023-03-15T10:19:23.374Z,99.10
2023-03-15T10:21:59.066Z,97.80
2023-03-15T10:24:36.907Z,96.10
2023-03-15T10:27:15.803Z,93.50
2023-03-15T10:29:45.338Z,91.40
2023-03-15T10:32:18.787Z,84.40
2023-03-15T10:34:50.883Z,80.30
2023-03-15T10:37:19.364Z,79.70
2023-03-15T10:39:53.350Z,73.10
2023-03-15T10:42:29.961Z,72.10
2023-03-15T10:44:58.251Z,69.70
2023-03-15T10:47:27.421Z,69.60
2023-03-15T10:49:59.851Z,72.70
2023-03-15T10:52:31.711Z,75.20
2023-03-15T10:55:05.694Z,74.50
2023-03-15T10:57:39.033Z,78.40
2023-03-15T11:00:23.859Z,88.70
2023-03-15T11:02:53.514Z,90.80
2023-03-15T11:05:21.708Z,93.00
2023-03-15T11:07:56.951Z,93.50
2023-03-15T11:10:28.088Z,93.90
2023-03-15T11:13:13.778Z,89.00
2023-03-15T11:15:50.653Z,87.50
2023-03-15T11:18:21.341Z,86.50
2023-03-15T11:20:49.305Z,77.30
2023-03-15T11:23:21.803Z,73.30
2023-03-15T11:25:51.146Z,74.80
2023-03-15T11:28:21.855Z,75.40
2023-03-15T11:30:50.554Z,74.10
2023-03-15T11:33:34.603Z,73.90
2023-03-15T11:36:06.401Z,65.20
2023-03-15T11:38:37.558Z,59.90
2023-03-15T11:41:18.703Z,61.60
2023-03-15T11:43:56.013Z,60.10
2023-03-15T11:46:29.052Z,63.70
2023-03-15T11:49:04.253Z,62.50
2023-03-15T11:51:36.148Z,68.80
2023-03-15T11:54:10.590Z,72.90
2023-03-15T11:56:55.481Z,74.90
2023-03-15T11:59:28.953Z,73.10
2023-03-15T12:01:59.619Z,72.90
2023-03-15T12:04:38.885Z,77.30
2023-03-15T12:07:24.752Z,77.80
2023-03-15T12:09:56.161Z,71.80
2023-03-15T12:12:46.115Z,65.20
2023-03-15T12:15:42.889Z,66.60
2023-03-15T12:18:17.148Z,62.70
2023-03-15T12:20:52.169Z,57.90
2023-03-15T12:23:36.602Z,60.40
2023-03-15T12:26:10.435Z,64.90
2023-03-15T12:28:44.033Z,61.10
2023-03-15T12:31:14.481Z,61.00
2023-03-15T12:33:48.380Z,64.50
2023-03-15T12:36:38.847Z,63.00
2023-03-15T12:39:23.160Z,62.30
2023-03-15T12:41:52.670Z,61.80
2023-03-15T12:44:40.242Z,58.80
2023-03-15T12:47:08.859Z,63.80
2023-03-15T12:49:39.612Z,64.90
2023-03-15T12:52:28.680Z,67.10
2023-03-15T12:55:01.988Z,66.30
2023-03-15T12:57:31.629Z,66.50
2023-03-15T13:00:07.728Z,67.30
2023-03-15T13:02:43.912Z,67.40
2023-03-15T13:05:18.406Z,66.60
2023-03-15T13:07:56.317Z,68.00
2023-03-15T13:10:54.562Z,68.80
2023-03-15T13:13:33.533Z,73.30
2023-03-15T13:16:15.344Z,73.60
2023-03-15T13:18:53.363Z,71.30
2023-03-15T13:21:27.397Z,73.10
2023-03-15T13:23:58.989Z,70.80
2023-03-15T13:26:40.302Z,69.80
2023-03-15T13:29:17.389Z,67.30
2023-03-15T13:31:47.752Z,65.10
2023-03-15T13:34:20.716Z,61.50
2023-03-15T13:36:54.392Z,65.40
2023-03-15T13:39:24.275Z,65.20
2023-03-15T13:41:58.977Z,64.60
2023-03-15T13:44:27.817Z,69.80
2023-03-15T13:46:57.391Z,69.60
2023-03-15T13:49:25.831Z,68.70
2023-03-15T13:51:54.769Z,71.10
2023-03-15T13:54:27.538Z,72.10
2023-03-15T13:56:59.651Z,67.40
2023-03-15T13:59:32.858Z,66.70
2023-03-15T14:02:04.517Z,68.30
2023-03-15T14:04:36.251Z,68.90
2023-03-15T14:07:10.666Z,69.70
2023-03-15T14:09:39.942Z,67.20
2023-03-15T14:12:19.162Z,70.10
2023-03-15T14:14:51.397Z,69.60
2023-03-15T14:17:27.121Z,66.90
2023-03-15T14:19:56.725Z,68.20
2023-03-15T14:22:25.507Z,65.20
2023-03-15T14:24:54.274Z,63.70
2023-03-15T14:27:26.097Z,63.90
2023-03-15T14:29:57.223Z,66.00
2023-03-15T14:32:29.561Z,63.50
2023-03-15T14:35:03.704Z,65.70
2023-03-15T14:37:37.797Z,66.80
2023-03-15T14:40:15.262Z,63.10
2023-03-15T14:42:43.709Z,61.20
2023-03-15T14:45:12.273Z,64.70
2023-03-15T14:47:56.361Z,64.30
2023-03-15T14:50:26.907Z,64.50
2023-03-15T14:52:55.296Z,66.50
2023-03-15T14:55:26.169Z,61.60
2023-03-15T14:57:54.128Z,61.00
2023-03-15T15:00:22.668Z,63.70
2023-03-15T15:02:54.836Z,65.10
2023-03-15T15:05:26.691Z,64.20
2023-03-15T15:07:59.662Z,64.20
2023-03-15T15:10:27.724Z,62.50
2023-03-15T15:13:05.584Z,67.00
2023-03-15T15:15:47.388Z,67.10
2023-03-15T15:18:23.999Z,66.10
2023-03-15T15:20:55.271Z,66.20
2023-03-15T15:23:25.837Z,65.40
2023-03-15T15:25:57.716Z,67.40
2023-03-15T15:28:35.413Z,67.50
2023-03-15T15:31:04.882Z,62.80
2023-03-15T15:33:34.339Z,65.10
2023-03-15T15:36:02.822Z,64.60
2023-03-15T15:38:37.985Z,62.20
2023-03-15T15:41:06.411Z,62.80
2023-03-15T15:43:34.434Z,62.10
2023-03-15T15:46:03.067Z,65.00
2023-03-15T15:48:31.122Z,66.20
2023-03-15T15:51:00.466Z,66.30
2023-03-15T15:53:32.663Z,66.60
2023-03-15T15:56:00.822Z,67.00
2023-03-15T15:58:28.831Z,69.20
2023-03-15T16:00:56.836Z,68.90
2023-03-15T16:03:24.977Z,67.20
2023-03-15T16:05:52.993Z,66.70
2023-03-15T16:08:24.943Z,66.10
2023-03-15T16:10:53.086Z,68.50
2023-03-15T16:13:21.090Z,70.10
2023-03-15T16:15:49.133Z,70.50
2023-03-15T16:18:17.161Z,71.60
2023-03-15T16:20:45.208Z,71.60
2023-03-15T16:23:21.553Z,71.10
2023-03-15T16:25:53.888Z,71.80
2023-03-15T16:28:21.965Z,70.70
2023-03-15T16:30:50.043Z,70.60
2023-03-15T16:33:20.436Z,70.80
2023-03-15T16:35:50.179Z,71.40
2023-03-15T16:38:24.172Z,71.10
2023-03-15T16:40:54.056Z,73.50
2023-03-15T16:43:22.937Z,73.10
2023-03-15T16:45:51.685Z,72.80
2023-03-15T16:48:20.166Z,72.90
2023-03-15T16:50:48.916Z,73.40
2023-03-15T16:53:17.415Z,73.30
2023-03-15T16:55:45.679Z,72.80
2023-03-15T16:58:21.938Z,72.50
2023-03-15T17:00:50.284Z,73.70
2023-03-15T17:03:18.635Z,75.20
2023-03-15T17:05:48.678Z,77.30
2023-03-15T17:08:20.788Z,77.40
2023-03-15T17:10:49.244Z,79.70
2023-03-15T17:13:22.104Z,78.70
2023-03-15T17:15:51.919Z,82.20
2023-03-15T17:18:21.776Z,77.90
2023-03-15T17:20:51.339Z,80.40
2023-03-15T17:23:21.405Z,80.10
2023-03-15T17:25:50.604Z,80.70
2023-03-15T17:28:19.695Z,80.90
2023-03-15T17:30:51.585Z,80.10
2023-03-15T17:33:25.953Z,79.70
2023-03-15T17:35:57.152Z,80.10
2023-03-15T17:38:32.190Z,79.20
2023-03-15T17:41:00.340Z,79.60
2023-03-15T17:43:28.393Z,78.90
2023-03-15T17:45:56.368Z,80.40
2023-03-15T17:48:25.659Z,85.00
2023-03-15T17:50:53.663Z,87.00
2023-03-15T17:53:22.121Z,89.30
2023-03-15T17:55:50.165Z,90.80
2023-03-15T17:58:20.284Z,90.60
2023-03-15T18:00:49.369Z,91.00
2023-03-15T18:03:18.231Z,91.70
2023-03-15T18:05:47.633Z,91.70
2023-03-15T18:08:18.192Z,92.10
2023-03-15T18:10:47.858Z,91.80
2023-03-15T18:13:18.182Z,92.90
2023-03-15T18:15:46.882Z,93.00
2023-03-15T18:18:15.158Z,93.50
2023-03-15T18:20:45.053Z,95.10
2023-03-15T18:23:15.670Z,97.20
2023-03-15T18:25:44.124Z,97.10
2023-03-15T18:28:12.224Z,96.00
2023-03-15T18:30:40.699Z,95.60
2023-03-15T18:33:08.834Z,95.70
2023-03-15T18:35:38.109Z,95.90
2023-03-15T18:38:06.673Z,96.40
2023-03-15T18:40:36.547Z,96.50
2023-03-15T18:43:05.491Z,97.50
2023-03-15T18:45:35.834Z,98.50
2023-03-15T18:48:04.808Z,97.40
2023-03-15T18:50:33.503Z,97.70
2023-03-15T18:53:03.921Z,98.10
2023-03-15T18:55:33.235Z,98.00
2023-03-15T18:58:02.804Z,98.50
2023-03-15T19:00:35.848Z,97.40
2023-03-15T19:03:05.582Z,97.60
2023-03-15T19:05:37.231Z,98.80
2023-03-15T19:08:06.396Z,99.90
2023-03-15T19:10:34.453Z,99.90
2023-03-15T19:13:04.831Z,99.90
2023-03-15T19:15:33.218Z,99.80
2023-03-15T19:18:01.847Z,99.30
2023-03-15T19:20:29.815Z,99.90
2023-03-15T19:22:57.780Z,99.90
2023-03-15T19:25:25.781Z,99.90
2023-03-15T19:27:53.738Z,99.90
2023-03-15T19:30:23.068Z,99.90
2023-03-15T19:32:51.976Z,99.90
2023-03-15T19:35:21.197Z,99.90
2023-03-15T19:37:50.078Z,99.90
2023-03-15T19:40:19.097Z,99.90
2023-03-15T19:42:48.510Z,99.90
2023-03-15T19:45:17.643Z,99.90
2023-03-15T19:47:47.029Z,99.90
2023-03-15T19:50:16.120Z,99.90
2023-03-15T19:52:46.875Z,99.90
2023-03-15T19:55:15.257Z,99.90
2023-03-15T19:57:43.754Z,99.90
2023-03-15T20:00:14.265Z,99.90
2023-03-15T20:02:42.883Z,99.90
2023-03-15T20:05:15.089Z,99.90
2023-03-15T20:07:44.099Z,99.90
2023-03-15T20:10:13.307Z,99.90
2023-03-15T20:12:42.628Z,99.90
2023-03-15T20:15:12.609Z,99.90
2023-03-15T20:17:41.287Z,99.90
2023-03-15T20:20:11.333Z,99.90
2023-03-15T20:22:43.989Z,99.90
2023-03-15T20:25:12.748Z,99.90
2023-03-15T20:27:40.979Z,99.90
2023-03-15T20:30:10.795Z,99.90
2023-03-15T20:32:38.791Z,99.90
2023-03-15T20:35:09.357Z,99.90
2023-03-15T20:37:40.145Z,99.90
2023-03-15T20:40:12.573Z,99.90
2023-03-15T20:42:41.077Z,99.90
2023-03-15T20:45:10.877Z,99.90
2023-03-15T20:47:38.984Z,99.90
2023-03-15T20:50:08.082Z,99.90
2023-03-15T20:52:36.169Z,99.90
2023-03-15T20:55:05.854Z,99.90
2023-03-15T20:57:36.344Z,99.90
2023-03-15T21:00:12.468Z,99.90
2023-03-15T21:02:41.128Z,99.90
2023-03-15T21:05:09.826Z,99.90
2023-03-15T21:07:38.068Z,99.90
2023-03-15T21:10:06.884Z,99.90
2023-03-15T21:12:36.447Z,99.90
2023-03-15T21:15:05.262Z,99.90
2023-03-15T21:17:33.494Z,99.90
2023-03-15T21:20:01.701Z,99.90
2023-03-15T21:22:32.501Z,99.90
2023-03-15T21:25:01.328Z,99.90
2023-03-15T21:27:29.510Z,99.90
2023-03-15T21:29:58.817Z,99.90
2023-03-15T21:32:27.096Z,99.90
2023-03-15T21:34:55.113Z,99.90
2023-03-15T21:37:23.030Z,99.90
2023-03-15T21:39:50.991Z,99.90
2023-03-15T21:42:18.960Z,99.90
2023-03-15T21:44:46.965Z,99.90
2023-03-15T21:47:16.744Z,99.90
2023-03-15T21:49:45.124Z,99.90
2023-03-15T21:52:16.222Z,99.90
2023-03-15T21:54:44.855Z,99.90
2023-03-15T21:57:13.613Z,99.90
2023-03-15T21:59:41.646Z,99.90
2023-03-15T22:02:14.149Z,99.90
2023-03-15T22:04:43.982Z,99.90
2023-03-15T22:07:12.654Z,99.90
2023-03-15T22:09:41.790Z,99.90
2023-03-15T22:12:10.375Z,99.90
2023-03-15T22:14:38.461Z,99.90
2023-03-15T22:17:06.593Z,99.90
2023-03-15T22:19:34.777Z,99.90
2023-03-15T22:22:04.165Z,99.90
2023-03-15T22:24:34.046Z,99.90
2023-03-15T22:27:02.117Z,99.90
2023-03-15T22:29:30.167Z,99.90
2023-03-15T22:31:58.149Z,99.90
2023-03-15T22:34:27.285Z,99.90
2023-03-15T22:36:55.236Z,99.90
2023-03-15T22:39:24.534Z,99.90
2023-03-15T22:41:52.740Z,99.90
2023-03-15T22:44:20.762Z,99.90
2023-03-15T22:46:49.288Z,99.90
2023-03-15T22:49:18.488Z,99.90
2023-03-15T22:51:46.482Z,99.90
2023-03-15T22:54:15.610Z,99.90
2023-03-15T22:56:45.032Z,99.90
2023-03-15T22:59:13.008Z,99.90
2023-03-15T23:01:41.026Z,99.90
2023-03-15T23:04:09.531Z,99.90
2023-03-15T23:06:37.516Z,99.90
2023-03-15T23:09:06.645Z,99.90
2023-03-15T23:11:34.875Z,99.90
2023-03-15T23:14:04.406Z,99.90
2023-03-15T23:16:32.790Z,99.90
2023-03-15T23:19:02.988Z,99.90
2023-03-15T23:21:31.011Z,99.90
2023-03-15T23:23:59.005Z,99.90
2023-03-15T23:26:27.446Z,99.90
2023-03-15T23:28:55.840Z,99.90
2023-03-15T23:31:25.218Z,99.90
2023-03-15T23:33:53.611Z,99.90
2023-03-15T23:36:21.602Z,99.90
2023-03-15T23:38:49.539Z,99.90
2023-03-15T23:41:17.536Z,99.90
2023-03-15T23:43:45.448Z,99.90
2023-03-15T23:46:14.459Z,99.90
2023-03-15T23:48:43.855Z,99.90
2023-03-15T23:51:12.606Z,99.90
2023-03-15T23:53:41.365Z,99.90
2023-03-15T23:56:09.349Z,99.90
2023-03-15T23:58:37.366Z,99.90
